Menomonie, WI (54751)

4:19 PM CDT on March 26, 2017 (GMT -0500)
Elmwood Park | | Change Station

Elev 876 ft 44.88 °N, 91.91 °W | Updated 22 seconds ago

Overcast
Overcast
43.4 °F
Feels Like 43 °F
N
2.0
Wind Variable Wind from NNW

Today
High -- | Low -- °F
--% Chance of Precip.
Yesterday
High -- | Low -- °F
Precip. -- in
Pressure 29.88 in
Visibility 10.0 miles
Clouds Overcast 1200 ft
Windchill 43 °F
Dew Point 38 °F
Humidity 83%
Rainfall 0.04 in
Snow Depth Not available.
6:59 AM 7:28 PM
Waning Crescent, 2% visible
METAR KLUM 262055Z AUTO 32004KT 10SM OVC012 06/03 A2988 RMK AO2 T00600034
Pressure 29.88 in
Visibility 10.0 miles
Clouds Overcast 1200 ft
Windchill 43 °F
Dew Point 38 °F
Humidity 83%
Rainfall 0.04 in
Snow Depth Not available.
6:59 AM 7:28 PM
Waning Crescent, 2% visible
METAR KLUM 262055Z AUTO 32004KT 10SM OVC012 06/03 A2988 RMK AO2 T00600034

Get Severe Weather Alerts

Thanks for signing up!

Be on the lookout for a verification email in your inbox.

You'll start receiving the daily forecast at 8 AM.

×

10-Day Weather Forecast

Almanac

Astronomy

Mar. 26, 2017 Rise Set
Actual Time
Civil Twilight
Nautical Twilight
Astronomical Twilight
Moon
Length of Visible Light
Length of Day
Tomorrow will be .
, % of the Moon is Illuminated

Today's Extremes

State Highs State Lows

Community

WunderPhotos

Upload Photos

1,962,540 photos uploaded!

WunderBlog® & News

Nearby

Air Quality

  Air Quality AQ Index Pollutant
Not available.

Snow Depth

Station Depth Elevation

Earthquake Activity

City Distance Mag. Time & Date
Minimum magnitude displayed is 2.5.

Earthquake Activity

City Distance Mag. Time & Date
Minimum magnitude displayed is 2.5.

Coastal Water Temperatures

Place Temperature

Stations

Nearby Weather Stations

Station Location Temp. Windchill Dew Point Humidity Wind Precip. Elev Updated Type
                   

Watches & Warnings

There are currently no watches in effect.